sensor_id;sensor_type;location;lat;lon;timestamp;temperature;humidity
11559;DHT22;5835;42.930;25.178;2022-12-29T00:00:13;3.20;1.00
11559;DHT22;5835;42.930;25.178;2022-12-29T00:02:40;3.10;1.00
11559;DHT22;5835;42.930;25.178;2022-12-29T00:05:08;3.10;99.90
11559;DHT22;5835;42.930;25.178;2022-12-29T00:07:37;3.00;1.00
11559;DHT22;5835;42.930;25.178;2022-12-29T00:10:06;2.90;1.00
11559;DHT22;5835;42.930;25.178;2022-12-29T00:12:33;3.00;99.90
11559;DHT22;5835;42.930;25.178;2022-12-29T00:15:15;3.10;99.90
11559;DHT22;5835;42.930;25.178;2022-12-29T00:17:59;3.10;1.00
11559;DHT22;5835;42.930;25.178;2022-12-29T00:20:27;3.10;1.00
11559;DHT22;5835;42.930;25.178;2022-12-29T00:23:13;3.00;1.00
11559;DHT22;5835;42.930;25.178;2022-12-29T00:26:02;2.80;99.90
11559;DHT22;5835;42.930;25.178;2022-12-29T00:28:46;2.70;7.30
11559;DHT22;5835;42.930;25.178;2022-12-29T00:31:31;2.70;99.90
11559;DHT22;5835;42.930;25.178;2022-12-29T00:34:16;2.90;99.90
11559;DHT22;5835;42.930;25.178;2022-12-29T00:37:01;3.00;1.00
11559;DHT22;5835;42.930;25.178;2022-12-29T00:39:30;3.10;1.00
11559;DHT22;5835;42.930;25.178;2022-12-29T00:42:15;3.20;99.90
11559;DHT22;5835;42.930;25.178;2022-12-29T00:44:59;3.00;99.90
11559;DHT22;5835;42.930;25.178;2022-12-29T00:47:26;3.10;1.00
11559;DHT22;5835;42.930;25.178;2022-12-29T00:49:54;3.30;99.90
11559;DHT22;5835;42.930;25.178;2022-12-29T00:52:20;3.40;1.00
11559;DHT22;5835;42.930;25.178;2022-12-29T00:54:49;3.40;1.00
11559;DHT22;5835;42.930;25.178;2022-12-29T00:57:18;3.40;1.00
11559;DHT22;5835;42.930;25.178;2022-12-29T00:59:45;3.40;1.00
11559;DHT22;5835;42.930;25.178;2022-12-29T01:02:13;3.40;1.00
11559;DHT22;5835;42.930;25.178;2022-12-29T01:04:40;3.40;1.00
11559;DHT22;5835;42.930;25.178;2022-12-29T01:07:08;3.30;1.00
11559;DHT22;5835;42.930;25.178;2022-12-29T01:09:35;3.20;99.90
11559;DHT22;5835;42.930;25.178;2022-12-29T01:12:21;3.20;1.00
11559;DHT22;5835;42.930;25.178;2022-12-29T01:15:03;3.40;99.90
11559;DHT22;5835;42.930;25.178;2022-12-29T01:17:30;3.50;99.90
11559;DHT22;5835;42.930;25.178;2022-12-29T01:19:58;3.60;99.90
11559;DHT22;5835;42.930;25.178;2022-12-29T01:22:26;3.70;99.90
11559;DHT22;5835;42.930;25.178;2022-12-29T01:24:53;3.60;99.90
11559;DHT22;5835;42.930;25.178;2022-12-29T01:27:22;3.70;99.90
11559;DHT22;5835;42.930;25.178;2022-12-29T01:29:49;3.60;1.00
11559;DHT22;5835;42.930;25.178;2022-12-29T01:32:17;3.70;1.00
11559;DHT22;5835;42.930;25.178;2022-12-29T01:34:45;3.70;99.90
11559;DHT22;5835;42.930;25.178;2022-12-29T01:37:12;3.80;1.00
11559;DHT22;5835;42.930;25.178;2022-12-29T01:39:40;3.80;99.90
11559;DHT22;5835;42.930;25.178;2022-12-29T01:42:14;3.80;1.00
11559;DHT22;5835;42.930;25.178;2022-12-29T01:44:51;3.80;19.30
11559;DHT22;5835;42.930;25.178;2022-12-29T01:47:27;3.90;99.90
11559;DHT22;5835;42.930;25.178;2022-12-29T01:49:58;3.90;99.90
11559;DHT22;5835;42.930;25.178;2022-12-29T01:52:31;3.90;1.00
11559;DHT22;5835;42.930;25.178;2022-12-29T01:55:00;3.80;1.00
11559;DHT22;5835;42.930;25.178;2022-12-29T01:57:31;3.70;99.90
11559;DHT22;5835;42.930;25.178;2022-12-29T02:00:05;3.70;99.90
11559;DHT22;5835;42.930;25.178;2022-12-29T02:02:34;3.80;99.90
11559;DHT22;5835;42.930;25.178;2022-12-29T02:05:07;3.80;99.90
11559;DHT22;5835;42.930;25.178;2022-12-29T02:07:37;3.90;99.90
11559;DHT22;5835;42.930;25.178;2022-12-29T02:10:06;3.80;99.90
11559;DHT22;5835;42.930;25.178;2022-12-29T02:12:34;3.90;99.90
11559;DHT22;5835;42.930;25.178;2022-12-29T02:15:04;3.90;99.90
11559;DHT22;5835;42.930;25.178;2022-12-29T02:17:46;3.90;99.90
11559;DHT22;5835;42.930;25.178;2022-12-29T02:20:52;4.00;99.90
11559;DHT22;5835;42.930;25.178;2022-12-29T02:23:46;4.20;1.00
11559;DHT22;5835;42.930;25.178;2022-12-29T02:29:46;4.20;1.00
11559;DHT22;5835;42.930;25.178;2022-12-29T02:32:28;4.10;99.90
11559;DHT22;5835;42.930;25.178;2022-12-29T02:35:04;4.10;1.00
11559;DHT22;5835;42.930;25.178;2022-12-29T02:37:40;4.10;1.00
11559;DHT22;5835;42.930;25.178;2022-12-29T02:40:18;4.00;1.00
11559;DHT22;5835;42.930;25.178;2022-12-29T02:42:50;3.90;8.80
11559;DHT22;5835;42.930;25.178;2022-12-29T02:45:24;3.90;99.90
11559;DHT22;5835;42.930;25.178;2022-12-29T02:47:58;3.80;99.90
11559;DHT22;5835;42.930;25.178;2022-12-29T02:50:32;3.80;99.90
11559;DHT22;5835;42.930;25.178;2022-12-29T02:53:04;3.80;99.90
11559;DHT22;5835;42.930;25.178;2022-12-29T02:55:32;3.80;1.00
11559;DHT22;5835;42.930;25.178;2022-12-29T02:58:17;3.80;1.00
11559;DHT22;5835;42.930;25.178;2022-12-29T03:00:54;3.90;1.00
11559;DHT22;5835;42.930;25.178;2022-12-29T03:03:36;3.90;1.00
11559;DHT22;5835;42.930;25.178;2022-12-29T03:06:22;3.90;99.90
11559;DHT22;5835;42.930;25.178;2022-12-29T03:08:58;3.90;99.90
11559;DHT22;5835;42.930;25.178;2022-12-29T03:11:31;4.00;99.90
11559;DHT22;5835;42.930;25.178;2022-12-29T03:14:26;3.90;99.90
11559;DHT22;5835;42.930;25.178;2022-12-29T03:17:19;4.00;44.10
11559;DHT22;5835;42.930;25.178;2022-12-29T03:19:59;4.00;99.90
11559;DHT22;5835;42.930;25.178;2022-12-29T03:22:30;4.00;99.90
11559;DHT22;5835;42.930;25.178;2022-12-29T03:25:03;4.00;99.90
11559;DHT22;5835;42.930;25.178;2022-12-29T03:27:34;4.10;1.00
11559;DHT22;5835;42.930;25.178;2022-12-29T03:30:04;4.30;1.00
11559;DHT22;5835;42.930;25.178;2022-12-29T03:32:36;4.20;99.90
11559;DHT22;5835;42.930;25.178;2022-12-29T03:35:08;4.20;1.00
11559;DHT22;5835;42.930;25.178;2022-12-29T03:37:41;4.20;1.00
11559;DHT22;5835;42.930;25.178;2022-12-29T03:40:11;4.20;1.00
11559;DHT22;5835;42.930;25.178;2022-12-29T03:42:40;4.20;99.90
11559;DHT22;5835;42.930;25.178;2022-12-29T03:45:10;4.00;1.00
11559;DHT22;5835;42.930;25.178;2022-12-29T03:47:38;4.00;98.50
11559;DHT22;5835;42.930;25.178;2022-12-29T03:50:08;3.20;42.10
11559;DHT22;5835;42.930;25.178;2022-12-29T03:52:36;2.50;1.00
11559;DHT22;5835;42.930;25.178;2022-12-29T03:55:04;2.40;1.00
11559;DHT22;5835;42.930;25.178;2022-12-29T03:57:32;2.30;17.30
11559;DHT22;5835;42.930;25.178;2022-12-29T03:59:59;2.30;54.20
11559;DHT22;5835;42.930;25.178;2022-12-29T04:02:27;2.40;30.80
11559;DHT22;5835;42.930;25.178;2022-12-29T04:04:54;2.40;1.00
11559;DHT22;5835;42.930;25.178;2022-12-29T04:07:24;2.30;1.00
11559;DHT22;5835;42.930;25.178;2022-12-29T04:09:51;2.40;6.70
11559;DHT22;5835;42.930;25.178;2022-12-29T04:12:19;2.30;1.00
11559;DHT22;5835;42.930;25.178;2022-12-29T04:14:46;2.30;1.00
11559;DHT22;5835;42.930;25.178;2022-12-29T04:17:14;2.40;1.00
11559;DHT22;5835;42.930;25.178;2022-12-29T04:19:42;2.30;1.00
11559;DHT22;5835;42.930;25.178;2022-12-29T04:22:09;2.20;1.00
11559;DHT22;5835;42.930;25.178;2022-12-29T04:24:39;2.40;1.00
11559;DHT22;5835;42.930;25.178;2022-12-29T04:27:06;2.30;1.00
11559;DHT22;5835;42.930;25.178;2022-12-29T04:29:34;2.30;1.00
11559;DHT22;5835;42.930;25.178;2022-12-29T04:32:01;2.40;1.00
11559;DHT22;5835;42.930;25.178;2022-12-29T04:34:29;2.30;1.00
11559;DHT22;5835;42.930;25.178;2022-12-29T04:36:56;2.20;1.00
11559;DHT22;5835;42.930;25.178;2022-12-29T04:39:24;2.30;1.00
11559;DHT22;5835;42.930;25.178;2022-12-29T04:41:53;2.40;1.00
11559;DHT22;5835;42.930;25.178;2022-12-29T04:44:20;2.30;1.00
11559;DHT22;5835;42.930;25.178;2022-12-29T04:46:48;2.30;1.00
11559;DHT22;5835;42.930;25.178;2022-12-29T04:49:15;2.20;1.00
11559;DHT22;5835;42.930;25.178;2022-12-29T04:51:43;2.20;1.00
11559;DHT22;5835;42.930;25.178;2022-12-29T04:54:11;2.10;1.00
11559;DHT22;5835;42.930;25.178;2022-12-29T04:56:38;2.00;1.00
11559;DHT22;5835;42.930;25.178;2022-12-29T04:59:07;2.00;15.20
11559;DHT22;5835;42.930;25.178;2022-12-29T05:01:35;1.90;25.10
11559;DHT22;5835;42.930;25.178;2022-12-29T05:04:03;2.00;14.10
11559;DHT22;5835;42.930;25.178;2022-12-29T05:06:30;2.00;21.70
11559;DHT22;5835;42.930;25.178;2022-12-29T05:08:58;1.90;20.70
11559;DHT22;5835;42.930;25.178;2022-12-29T05:11:26;1.60;61.00
11559;DHT22;5835;42.930;25.178;2022-12-29T05:13:53;1.80;97.10
11559;DHT22;5835;42.930;25.178;2022-12-29T05:16:22;1.80;85.80
11559;DHT22;5835;42.930;25.178;2022-12-29T05:18:50;1.90;84.00
11559;DHT22;5835;42.930;25.178;2022-12-29T05:21:18;1.90;22.40
11559;DHT22;5835;42.930;25.178;2022-12-29T05:23:45;1.60;53.50
11559;DHT22;5835;42.930;25.178;2022-12-29T05:26:12;1.50;90.50
11559;DHT22;5835;42.930;25.178;2022-12-29T05:28:40;1.60;99.90
11559;DHT22;5835;42.930;25.178;2022-12-29T05:31:07;1.80;86.10
11559;DHT22;5835;42.930;25.178;2022-12-29T05:33:36;1.90;36.20
11559;DHT22;5835;42.930;25.178;2022-12-29T05:36:04;1.90;28.10
11559;DHT22;5835;42.930;25.178;2022-12-29T05:38:32;1.80;22.80
11559;DHT22;5835;42.930;25.178;2022-12-29T05:41:00;2.00;28.90
11559;DHT22;5835;42.930;25.178;2022-12-29T05:43:28;2.00;1.00
11559;DHT22;5835;42.930;25.178;2022-12-29T05:45:55;1.90;1.00
11559;DHT22;5835;42.930;25.178;2022-12-29T05:48:23;1.80;7.70
11559;DHT22;5835;42.930;25.178;2022-12-29T05:50:52;2.00;10.20
11559;DHT22;5835;42.930;25.178;2022-12-29T05:53:20;1.90;16.60
11559;DHT22;5835;42.930;25.178;2022-12-29T05:55:48;1.80;25.00
11559;DHT22;5835;42.930;25.178;2022-12-29T05:58:16;1.80;52.00
11559;DHT22;5835;42.930;25.178;2022-12-29T06:00:43;1.90;50.60
11559;DHT22;5835;42.930;25.178;2022-12-29T06:03:11;2.00;29.10
11559;DHT22;5835;42.930;25.178;2022-12-29T06:05:38;2.00;16.50
11559;DHT22;5835;42.930;25.178;2022-12-29T06:08:07;1.90;36.30
11559;DHT22;5835;42.930;25.178;2022-12-29T06:10:35;2.10;26.90
11559;DHT22;5835;42.930;25.178;2022-12-29T06:13:02;2.20;1.00
11559;DHT22;5835;42.930;25.178;2022-12-29T06:15:31;2.20;2.60
11559;DHT22;5835;42.930;25.178;2022-12-29T06:17:58;2.20;1.00
11559;DHT22;5835;42.930;25.178;2022-12-29T06:20:26;2.10;1.00
11559;DHT22;5835;42.930;25.178;2022-12-29T06:22:54;2.10;1.00
11559;DHT22;5835;42.930;25.178;2022-12-29T06:25:23;2.10;12.50
11559;DHT22;5835;42.930;25.178;2022-12-29T06:27:50;2.10;1.90
11559;DHT22;5835;42.930;25.178;2022-12-29T06:30:21;2.20;13.70
11559;DHT22;5835;42.930;25.178;2022-12-29T06:32:49;2.30;1.00
11559;DHT22;5835;42.930;25.178;2022-12-29T06:35:17;2.30;1.00
11559;DHT22;5835;42.930;25.178;2022-12-29T06:37:44;2.30;1.00
11559;DHT22;5835;42.930;25.178;2022-12-29T06:40:12;2.20;1.90
11559;DHT22;5835;42.930;25.178;2022-12-29T06:42:41;2.10;10.00
11559;DHT22;5835;42.930;25.178;2022-12-29T06:45:09;2.10;27.70
11559;DHT22;5835;42.930;25.178;2022-12-29T06:47:37;2.10;38.50
11559;DHT22;5835;42.930;25.178;2022-12-29T06:50:05;2.10;50.80
11559;DHT22;5835;42.930;25.178;2022-12-29T06:52:33;2.10;53.70
11559;DHT22;5835;42.930;25.178;2022-12-29T06:55:01;2.20;52.00
11559;DHT22;5835;42.930;25.178;2022-12-29T06:57:28;2.30;55.20
11559;DHT22;5835;42.930;25.178;2022-12-29T06:59:58;2.50;57.80
11559;DHT22;5835;42.930;25.178;2022-12-29T07:02:25;2.60;34.20
11559;DHT22;5835;42.930;25.178;2022-12-29T07:04:53;2.60;23.30
11559;DHT22;5835;42.930;25.178;2022-12-29T07:07:21;2.70;27.00
11559;DHT22;5835;42.930;25.178;2022-12-29T07:09:48;2.80;34.70
11559;DHT22;5835;42.930;25.178;2022-12-29T07:12:16;2.90;90.90
11559;DHT22;5835;42.930;25.178;2022-12-29T07:14:44;3.00;76.80
11559;DHT22;5835;42.930;25.178;2022-12-29T07:17:14;3.10;59.80
11559;DHT22;5835;42.930;25.178;2022-12-29T07:19:42;3.10;35.90
11559;DHT22;5835;42.930;25.178;2022-12-29T07:22:10;3.10;22.40
11559;DHT22;5835;42.930;25.178;2022-12-29T07:24:37;3.10;28.00
11559;DHT22;5835;42.930;25.178;2022-12-29T07:27:05;3.10;13.00
11559;DHT22;5835;42.930;25.178;2022-12-29T07:29:32;3.10;2.70
11559;DHT22;5835;42.930;25.178;2022-12-29T07:32:00;3.20;1.00
11559;DHT22;5835;42.930;25.178;2022-12-29T07:34:29;3.10;1.00
11559;DHT22;5835;42.930;25.178;2022-12-29T07:36:57;3.20;7.20
11559;DHT22;5835;42.930;25.178;2022-12-29T07:39:24;3.30;1.00
11559;DHT22;5835;42.930;25.178;2022-12-29T07:41:52;3.40;1.00
11559;DHT22;5835;42.930;25.178;2022-12-29T07:44:19;3.60;1.00
11559;DHT22;5835;42.930;25.178;2022-12-29T07:46:47;3.60;1.00
11559;DHT22;5835;42.930;25.178;2022-12-29T07:49:15;3.50;1.00
11559;DHT22;5835;42.930;25.178;2022-12-29T07:51:46;3.60;1.00
11559;DHT22;5835;42.930;25.178;2022-12-29T07:54:13;3.60;1.00
11559;DHT22;5835;42.930;25.178;2022-12-29T07:56:44;3.60;1.00
11559;DHT22;5835;42.930;25.178;2022-12-29T07:59:11;3.60;1.00
11559;DHT22;5835;42.930;25.178;2022-12-29T08:01:39;3.70;1.00
11559;DHT22;5835;42.930;25.178;2022-12-29T08:04:07;3.70;1.00
11559;DHT22;5835;42.930;25.178;2022-12-29T08:06:34;3.70;1.00
11559;DHT22;5835;42.930;25.178;2022-12-29T08:09:08;3.80;1.00
11559;DHT22;5835;42.930;25.178;2022-12-29T08:11:36;3.90;1.00
11559;DHT22;5835;42.930;25.178;2022-12-29T08:14:04;4.00;1.00
11559;DHT22;5835;42.930;25.178;2022-12-29T08:16:32;4.10;1.00
11559;DHT22;5835;42.930;25.178;2022-12-29T08:18:59;4.10;1.00
11559;DHT22;5835;42.930;25.178;2022-12-29T08:21:27;4.20;1.00
11559;DHT22;5835;42.930;25.178;2022-12-29T08:23:55;4.30;1.00
11559;DHT22;5835;42.930;25.178;2022-12-29T08:26:24;4.30;1.00
11559;DHT22;5835;42.930;25.178;2022-12-29T08:28:52;4.30;1.00
11559;DHT22;5835;42.930;25.178;2022-12-29T08:31:22;4.30;1.00
11559;DHT22;5835;42.930;25.178;2022-12-29T08:33:49;4.40;99.90
11559;DHT22;5835;42.930;25.178;2022-12-29T08:36:17;4.60;99.90
11559;DHT22;5835;42.930;25.178;2022-12-29T08:38:45;4.70;94.20
11559;DHT22;5835;42.930;25.178;2022-12-29T08:41:13;4.80;99.90
11559;DHT22;5835;42.930;25.178;2022-12-29T08:43:45;4.90;1.00
11559;DHT22;5835;42.930;25.178;2022-12-29T08:46:13;5.10;1.00
11559;DHT22;5835;42.930;25.178;2022-12-29T08:48:40;5.30;76.00
11559;DHT22;5835;42.930;25.178;2022-12-29T08:51:08;5.50;99.90
11559;DHT22;5835;42.930;25.178;2022-12-29T08:53:36;5.70;1.00
11559;DHT22;5835;42.930;25.178;2022-12-29T08:56:04;5.90;1.00
11559;DHT22;5835;42.930;25.178;2022-12-29T08:58:32;5.90;99.90
11559;DHT22;5835;42.930;25.178;2022-12-29T09:01:01;6.10;29.10
11559;DHT22;5835;42.930;25.178;2022-12-29T09:03:29;6.30;99.90
11559;DHT22;5835;42.930;25.178;2022-12-29T09:05:56;6.40;99.90
11559;DHT22;5835;42.930;25.178;2022-12-29T09:08:24;6.60;1.00
11559;DHT22;5835;42.930;25.178;2022-12-29T09:10:52;6.70;99.90
11559;DHT22;5835;42.930;25.178;2022-12-29T09:13:20;6.70;99.90
11559;DHT22;5835;42.930;25.178;2022-12-29T09:15:47;6.90;99.90
11559;DHT22;5835;42.930;25.178;2022-12-29T09:18:16;6.90;1.00
11559;DHT22;5835;42.930;25.178;2022-12-29T09:20:43;7.00;1.00
11559;DHT22;5835;42.930;25.178;2022-12-29T09:23:11;7.10;1.00
11559;DHT22;5835;42.930;25.178;2022-12-29T09:25:39;7.30;1.00
11559;DHT22;5835;42.930;25.178;2022-12-29T09:28:08;7.40;1.00
11559;DHT22;5835;42.930;25.178;2022-12-29T09:30:36;7.60;1.00
11559;DHT22;5835;42.930;25.178;2022-12-29T09:33:04;7.50;99.90
11559;DHT22;5835;42.930;25.178;2022-12-29T09:35:33;7.50;99.90
11559;DHT22;5835;42.930;25.178;2022-12-29T09:38:00;7.50;1.00
11559;DHT22;5835;42.930;25.178;2022-12-29T09:40:30;7.60;99.90
11559;DHT22;5835;42.930;25.178;2022-12-29T09:43:16;7.60;99.90
11559;DHT22;5835;42.930;25.178;2022-12-29T09:45:49;7.80;99.90
11559;DHT22;5835;42.930;25.178;2022-12-29T09:48:25;8.00;99.90
11559;DHT22;5835;42.930;25.178;2022-12-29T09:50:59;8.20;99.90
11559;DHT22;5835;42.930;25.178;2022-12-29T09:53:36;8.30;75.60
11559;DHT22;5835;42.930;25.178;2022-12-29T09:56:13;8.40;99.90
11559;DHT22;5835;42.930;25.178;2022-12-29T09:58:44;8.50;99.90
11559;DHT22;5835;42.930;25.178;2022-12-29T10:01:24;8.50;96.10
11559;DHT22;5835;42.930;25.178;2022-12-29T10:03:56;8.50;73.40
11559;DHT22;5835;42.930;25.178;2022-12-29T10:06:29;8.50;21.90
11559;DHT22;5835;42.930;25.178;2022-12-29T10:09:02;8.50;29.70
11559;DHT22;5835;42.930;25.178;2022-12-29T10:11:52;8.50;38.70
11559;DHT22;5835;42.930;25.178;2022-12-29T10:14:45;8.60;28.80
11559;DHT22;5835;42.930;25.178;2022-12-29T10:17:24;8.80;1.00
11559;DHT22;5835;42.930;25.178;2022-12-29T10:20:02;9.00;3.80
11559;DHT22;5835;42.930;25.178;2022-12-29T10:22:46;9.00;1.00
11559;DHT22;5835;42.930;25.178;2022-12-29T10:25:18;9.00;1.00
11559;DHT22;5835;42.930;25.178;2022-12-29T10:27:48;8.90;1.00
11559;DHT22;5835;42.930;25.178;2022-12-29T10:30:17;8.70;1.00
11559;DHT22;5835;42.930;25.178;2022-12-29T10:32:48;8.60;1.00
11559;DHT22;5835;42.930;25.178;2022-12-29T10:35:19;8.60;1.00
11559;DHT22;5835;42.930;25.178;2022-12-29T10:37:52;8.60;1.00
11559;DHT22;5835;42.930;25.178;2022-12-29T10:40:25;8.60;1.00
11559;DHT22;5835;42.930;25.178;2022-12-29T10:42:55;8.60;1.00
11559;DHT22;5835;42.930;25.178;2022-12-29T10:45:28;8.80;1.00
11559;DHT22;5835;42.930;25.178;2022-12-29T10:48:04;8.90;1.00
11559;DHT22;5835;42.930;25.178;2022-12-29T10:50:34;9.10;1.00
11559;DHT22;5835;42.930;25.178;2022-12-29T10:53:05;9.30;1.00
11559;DHT22;5835;42.930;25.178;2022-12-29T10:55:35;9.50;1.00
11559;DHT22;5835;42.930;25.178;2022-12-29T10:58:06;9.70;1.00
11559;DHT22;5835;42.930;25.178;2022-12-29T11:00:34;9.60;1.00
11559;DHT22;5835;42.930;25.178;2022-12-29T11:03:21;9.60;1.00
11559;DHT22;5835;42.930;25.178;2022-12-29T11:05:57;9.70;1.00
11559;DHT22;5835;42.930;25.178;2022-12-29T11:08:33;9.80;1.00
11559;DHT22;5835;42.930;25.178;2022-12-29T11:11:06;9.80;1.00
11559;DHT22;5835;42.930;25.178;2022-12-29T11:13:35;9.90;1.00
11559;DHT22;5835;42.930;25.178;2022-12-29T11:16:13;10.20;1.00
11559;DHT22;5835;42.930;25.178;2022-12-29T11:18:41;10.20;99.90
11559;DHT22;5835;42.930;25.178;2022-12-29T11:21:26;10.30;99.90
11559;DHT22;5835;42.930;25.178;2022-12-29T11:24:00;10.50;99.90
11559;DHT22;5835;42.930;25.178;2022-12-29T11:26:28;10.60;99.90
11559;DHT22;5835;42.930;25.178;2022-12-29T11:29:21;10.70;99.90
11559;DHT22;5835;42.930;25.178;2022-12-29T11:31:51;10.80;99.90
11559;DHT22;5835;42.930;25.178;2022-12-29T11:34:21;10.80;99.90
11559;DHT22;5835;42.930;25.178;2022-12-29T11:36:52;10.90;99.90
11559;DHT22;5835;42.930;25.178;2022-12-29T11:39:36;10.90;99.90
11559;DHT22;5835;42.930;25.178;2022-12-29T11:42:06;10.90;99.90
11559;DHT22;5835;42.930;25.178;2022-12-29T11:44:44;10.90;99.90
11559;DHT22;5835;42.930;25.178;2022-12-29T11:47:25;10.80;99.90
11559;DHT22;5835;42.930;25.178;2022-12-29T11:49:55;10.90;99.90
11559;DHT22;5835;42.930;25.178;2022-12-29T11:52:25;10.90;99.90
11559;DHT22;5835;42.930;25.178;2022-12-29T11:54:56;10.90;99.90
11559;DHT22;5835;42.930;25.178;2022-12-29T11:57:25;10.90;99.90
11559;DHT22;5835;42.930;25.178;2022-12-29T11:59:54;11.10;99.90
11559;DHT22;5835;42.930;25.178;2022-12-29T12:02:36;11.20;99.90
11559;DHT22;5835;42.930;25.178;2022-12-29T12:05:10;11.20;99.90
11559;DHT22;5835;42.930;25.178;2022-12-29T12:07:41;11.40;99.90
11559;DHT22;5835;42.930;25.178;2022-12-29T12:10:22;11.50;99.90
11559;DHT22;5835;42.930;25.178;2022-12-29T12:12:58;11.70;99.90
11559;DHT22;5835;42.930;25.178;2022-12-29T12:15:31;11.70;99.90
11559;DHT22;5835;42.930;25.178;2022-12-29T12:18:03;11.50;99.90
11559;DHT22;5835;42.930;25.178;2022-12-29T12:20:41;11.30;99.90
11559;DHT22;5835;42.930;25.178;2022-12-29T12:23:22;11.30;99.90
11559;DHT22;5835;42.930;25.178;2022-12-29T12:25:59;11.40;99.90
11559;DHT22;5835;42.930;25.178;2022-12-29T12:28:37;11.50;99.90
11559;DHT22;5835;42.930;25.178;2022-12-29T12:31:15;11.70;99.90
11559;DHT22;5835;42.930;25.178;2022-12-29T12:33:47;11.70;99.90
11559;DHT22;5835;42.930;25.178;2022-12-29T12:36:29;11.80;99.90
11559;DHT22;5835;42.930;25.178;2022-12-29T12:39:04;12.00;99.90
11559;DHT22;5835;42.930;25.178;2022-12-29T12:41:44;12.10;99.90
11559;DHT22;5835;42.930;25.178;2022-12-29T12:44:20;12.10;99.90
11559;DHT22;5835;42.930;25.178;2022-12-29T12:47:13;12.20;99.90
11559;DHT22;5835;42.930;25.178;2022-12-29T12:50:14;12.30;99.90
11559;DHT22;5835;42.930;25.178;2022-12-29T12:53:00;12.30;99.90
11559;DHT22;5835;42.930;25.178;2022-12-29T12:55:43;12.40;99.90
11559;DHT22;5835;42.930;25.178;2022-12-29T12:58:19;12.60;99.90
11559;DHT22;5835;42.930;25.178;2022-12-29T13:00:56;12.80;99.90
11559;DHT22;5835;42.930;25.178;2022-12-29T13:03:35;12.80;99.90
11559;DHT22;5835;42.930;25.178;2022-12-29T13:06:16;12.80;99.90
11559;DHT22;5835;42.930;25.178;2022-12-29T13:08:59;12.80;99.90
11559;DHT22;5835;42.930;25.178;2022-12-29T13:11:35;12.80;99.90
11559;DHT22;5835;42.930;25.178;2022-12-29T13:14:24;12.80;99.90
11559;DHT22;5835;42.930;25.178;2022-12-29T13:17:02;12.80;96.60
11559;DHT22;5835;42.930;25.178;2022-12-29T13:19:36;12.70;94.70
11559;DHT22;5835;42.930;25.178;2022-12-29T13:22:09;12.80;94.10
11559;DHT22;5835;42.930;25.178;2022-12-29T13:24:47;12.70;91.40
11559;DHT22;5835;42.930;25.178;2022-12-29T13:27:22;12.80;92.70
11559;DHT22;5835;42.930;25.178;2022-12-29T13:30:00;12.70;91.70
11559;DHT22;5835;42.930;25.178;2022-12-29T13:32:38;12.70;91.40
11559;DHT22;5835;42.930;25.178;2022-12-29T13:35:28;12.70;92.00
11559;DHT22;5835;42.930;25.178;2022-12-29T13:38:03;12.70;93.60
11559;DHT22;5835;42.930;25.178;2022-12-29T13:40:36;12.70;90.20
11559;DHT22;5835;42.930;25.178;2022-12-29T13:43:05;12.80;88.70
11559;DHT22;5835;42.930;25.178;2022-12-29T13:45:36;12.80;88.00
11559;DHT22;5835;42.930;25.178;2022-12-29T13:48:09;12.80;83.40
11559;DHT22;5835;42.930;25.178;2022-12-29T13:50:40;12.80;85.60
11559;DHT22;5835;42.930;25.178;2022-12-29T13:53:16;12.90;82.60
11559;DHT22;5835;42.930;25.178;2022-12-29T13:55:51;12.90;85.60
11559;DHT22;5835;42.930;25.178;2022-12-29T13:58:27;13.10;83.60
11559;DHT22;5835;42.930;25.178;2022-12-29T14:01:08;13.20;77.40
11559;DHT22;5835;42.930;25.178;2022-12-29T14:03:47;13.40;75.50
11559;DHT22;5835;42.930;25.178;2022-12-29T14:06:21;13.30;71.50
11559;DHT22;5835;42.930;25.178;2022-12-29T14:08:52;13.30;62.60
11559;DHT22;5835;42.930;25.178;2022-12-29T14:11:22;13.30;62.20
11559;DHT22;5835;42.930;25.178;2022-12-29T14:13:52;13.20;62.40
11559;DHT22;5835;42.930;25.178;2022-12-29T14:16:30;13.20;66.00
11559;DHT22;5835;42.930;25.178;2022-12-29T14:19:07;13.20;57.50
11559;DHT22;5835;42.930;25.178;2022-12-29T14:21:38;13.30;54.70
11559;DHT22;5835;42.930;25.178;2022-12-29T14:24:37;13.30;49.90
11559;DHT22;5835;42.930;25.178;2022-12-29T14:27:43;13.30;43.50
11559;DHT22;5835;42.930;25.178;2022-12-29T14:30:51;13.20;39.30
11559;DHT22;5835;42.930;25.178;2022-12-29T14:33:21;13.20;42.10
11559;DHT22;5835;42.930;25.178;2022-12-29T14:35:53;13.10;38.60
11559;DHT22;5835;42.930;25.178;2022-12-29T14:38:30;13.00;42.30
11559;DHT22;5835;42.930;25.178;2022-12-29T14:41:32;12.90;46.40
11559;DHT22;5835;42.930;25.178;2022-12-29T14:44:08;12.90;48.30
11559;DHT22;5835;42.930;25.178;2022-12-29T14:46:56;12.70;49.30
11559;DHT22;5835;42.930;25.178;2022-12-29T14:49:28;12.60;52.80
11559;DHT22;5835;42.930;25.178;2022-12-29T14:52:06;12.60;56.10
11559;DHT22;5835;42.930;25.178;2022-12-29T14:54:43;12.50;51.70
11559;DHT22;5835;42.930;25.178;2022-12-29T14:57:22;12.50;55.70
11559;DHT22;5835;42.930;25.178;2022-12-29T14:59:54;12.40;54.20
11559;DHT22;5835;42.930;25.178;2022-12-29T15:02:24;12.40;59.20
11559;DHT22;5835;42.930;25.178;2022-12-29T15:04:59;12.30;63.90
11559;DHT22;5835;42.930;25.178;2022-12-29T15:07:29;12.20;67.90
11559;DHT22;5835;42.930;25.178;2022-12-29T15:10:00;12.10;70.70
11559;DHT22;5835;42.930;25.178;2022-12-29T15:12:36;11.90;77.50
11559;DHT22;5835;42.930;25.178;2022-12-29T15:15:17;11.80;90.70
11559;DHT22;5835;42.930;25.178;2022-12-29T15:17:45;11.70;98.00
11559;DHT22;5835;42.930;25.178;2022-12-29T15:20:23;11.50;99.90
11559;DHT22;5835;42.930;25.178;2022-12-29T15:22:54;11.30;99.90
11559;DHT22;5835;42.930;25.178;2022-12-29T15:25:24;11.10;99.90
11559;DHT22;5835;42.930;25.178;2022-12-29T15:27:53;11.10;99.90
11559;DHT22;5835;42.930;25.178;2022-12-29T15:30:22;11.10;99.90
11559;DHT22;5835;42.930;25.178;2022-12-29T15:32:50;11.00;99.90
11559;DHT22;5835;42.930;25.178;2022-12-29T15:35:28;11.00;99.90
11559;DHT22;5835;42.930;25.178;2022-12-29T15:37:57;11.10;99.90
11559;DHT22;5835;42.930;25.178;2022-12-29T15:40:27;11.10;99.90
11559;DHT22;5835;42.930;25.178;2022-12-29T15:43:34;11.00;99.90
11559;DHT22;5835;42.930;25.178;2022-12-29T15:46:04;10.80;99.90
11559;DHT22;5835;42.930;25.178;2022-12-29T15:48:32;10.80;99.90
11559;DHT22;5835;42.930;25.178;2022-12-29T15:51:02;10.60;99.90
11559;DHT22;5835;42.930;25.178;2022-12-29T15:53:31;10.40;99.90
11559;DHT22;5835;42.930;25.178;2022-12-29T15:56:05;10.40;99.90
11559;DHT22;5835;42.930;25.178;2022-12-29T15:58:40;10.20;99.90
11559;DHT22;5835;42.930;25.178;2022-12-29T16:01:18;10.10;99.90
11559;DHT22;5835;42.930;25.178;2022-12-29T16:03:46;10.10;99.90
11559;DHT22;5835;42.930;25.178;2022-12-29T16:06:30;9.90;99.90
11559;DHT22;5835;42.930;25.178;2022-12-29T16:08:59;9.70;99.90
11559;DHT22;5835;42.930;25.178;2022-12-29T16:11:31;9.60;99.90
11559;DHT22;5835;42.930;25.178;2022-12-29T16:14:00;9.50;1.00
11559;DHT22;5835;42.930;25.178;2022-12-29T16:16:31;9.30;1.00
11559;DHT22;5835;42.930;25.178;2022-12-29T16:19:08;9.20;1.00
11559;DHT22;5835;42.930;25.178;2022-12-29T16:21:39;9.00;1.00
11559;DHT22;5835;42.930;25.178;2022-12-29T16:24:13;9.00;1.00